createdAt,value
2023-01-18T00:03:35.984Z,6.60
2023-01-18T00:08:38.816Z,7.63
2023-01-18T00:13:40.437Z,6.97
2023-01-18T00:18:42.898Z,7.60
2023-01-18T00:23:44.538Z,7.87
2023-01-18T00:28:46.143Z,8.20
2023-01-18T00:33:49.304Z,7.23
2023-01-18T00:38:51.611Z,7.27
2023-01-18T00:43:53.821Z,7.53
2023-01-18T00:48:57.256Z,7.00
2023-01-18T00:53:58.810Z,6.97
2023-01-18T00:59:00.355Z,6.80
2023-01-18T01:04:20.295Z,7.47
2023-01-18T01:09:24.772Z,7.23
2023-01-18T01:14:45.290Z,6.67
2023-01-18T01:20:05.159Z,6.27
2023-01-18T01:25:25.447Z,6.37
2023-01-18T01:30:27.038Z,6.50
2023-01-18T01:35:28.612Z,6.47
2023-01-18T01:40:30.163Z,6.50
2023-01-18T01:45:32.271Z,5.70
2023-01-18T01:50:39.559Z,6.10
2023-01-18T01:55:41.717Z,5.83
2023-01-18T02:00:43.931Z,6.30
2023-01-18T02:05:48.000Z,5.90
2023-01-18T02:10:50.506Z,6.83
2023-01-18T02:16:10.573Z,6.73
2023-01-18T02:21:20.790Z,7.10
2023-01-18T02:26:30.575Z,7.07
2023-01-18T02:32:10.529Z,7.07
2023-01-18T02:37:30.766Z,7.23
2023-01-18T02:42:52.762Z,7.67
2023-01-18T02:47:54.898Z,8.23
2023-01-18T02:52:56.796Z,9.17
2023-01-18T02:58:06.713Z,9.27
2023-01-18T03:03:10.909Z,10.23
2023-01-18T03:08:20.813Z,10.30
2023-01-18T03:13:47.142Z,10.10
2023-01-18T03:19:00.690Z,9.87
2023-01-18T03:24:04.710Z,9.87
2023-01-18T03:29:25.184Z,9.80
2023-01-18T03:34:34.222Z,9.30
2023-01-18T03:39:47.634Z,8.67
2023-01-18T03:45:15.822Z,9.27
2023-01-18T03:50:17.867Z,9.00
2023-01-18T03:55:36.926Z,8.03
2023-01-18T04:00:39.570Z,8.13
2023-01-18T04:05:41.512Z,8.73
2023-01-18T04:10:43.175Z,9.30
2023-01-18T04:15:44.765Z,8.07
2023-01-18T04:20:46.387Z,8.70
2023-01-18T04:25:51.225Z,9.60
2023-01-18T04:30:54.544Z,9.10
2023-01-18T04:35:56.123Z,8.50
2023-01-18T04:41:02.767Z,8.80
2023-01-18T04:46:04.472Z,8.60
2023-01-18T04:51:11.579Z,8.83
2023-01-18T04:56:13.190Z,8.90
2023-01-18T05:01:16.616Z,9.23
2023-01-18T05:06:19.934Z,9.53
2023-01-18T05:11:24.196Z,8.50
2023-01-18T05:16:25.815Z,9.90
2023-01-18T05:21:28.591Z,9.60
2023-01-18T05:26:30.296Z,9.00
2023-01-18T05:31:32.156Z,8.77
2023-01-18T05:36:34.023Z,10.53
2023-01-18T05:41:35.733Z,10.00
2023-01-18T05:46:37.294Z,9.33
2023-01-18T05:51:38.854Z,9.07
2023-01-18T05:56:42.120Z,8.60
2023-01-18T06:01:43.724Z,8.67
2023-01-18T06:06:45.347Z,8.60
2023-01-18T06:11:46.939Z,8.10
2023-01-18T06:16:48.632Z,8.93
2023-01-18T06:21:50.240Z,8.00
2023-01-18T06:26:51.810Z,7.80
2023-01-18T06:31:53.769Z,9.87
2023-01-18T06:36:55.462Z,8.27
2023-01-18T06:41:57.461Z,7.97
2023-01-18T06:46:59.150Z,7.93
2023-01-18T06:52:00.765Z,8.23
2023-01-18T06:57:02.421Z,7.67
2023-01-18T07:02:04.951Z,7.30
2023-01-18T07:07:06.719Z,7.40
2023-01-18T07:12:08.262Z,8.50
2023-01-18T07:17:10.107Z,8.50
2023-01-18T07:22:13.165Z,8.43
2023-01-18T07:27:14.716Z,8.43
2023-01-18T07:32:16.377Z,8.93
2023-01-18T07:37:18.068Z,8.00
2023-01-18T07:42:19.718Z,8.63
2023-01-18T07:47:21.520Z,8.17
2023-01-18T07:52:23.159Z,8.20
2023-01-18T07:57:25.769Z,8.27
2023-01-18T08:02:27.433Z,7.67
2023-01-18T08:07:32.308Z,7.63
2023-01-18T08:12:33.954Z,7.03
2023-01-18T08:17:35.578Z,7.87
2023-01-18T08:22:37.226Z,7.20
2023-01-18T08:27:38.870Z,8.67
2023-01-18T08:32:40.943Z,8.30
2023-01-18T08:37:42.522Z,8.97
2023-01-18T08:42:44.100Z,7.70
2023-01-18T08:47:45.693Z,7.70
2023-01-18T08:52:47.243Z,7.57
2023-01-18T08:57:49.604Z,8.13
2023-01-18T09:02:51.703Z,7.90
2023-01-18T09:07:54.156Z,8.17
2023-01-18T09:12:56.310Z,8.50
2023-01-18T09:17:58.488Z,8.63
2023-01-18T09:23:04.793Z,7.73
2023-01-18T09:28:06.566Z,8.60
2023-01-18T09:33:08.170Z,8.83
2023-01-18T09:38:12.328Z,9.20
2023-01-18T09:43:17.455Z,9.63
2023-01-18T09:48:30.024Z,8.70
2023-01-18T09:53:57.673Z,8.93
2023-01-18T09:59:17.993Z,9.63
2023-01-18T10:04:39.822Z,9.17
2023-01-18T10:09:50.115Z,10.00
2023-01-18T10:15:07.803Z,9.90
2023-01-18T10:20:16.907Z,9.57
2023-01-18T10:25:47.183Z,9.93
2023-01-18T10:30:58.112Z,8.97
2023-01-18T10:36:09.624Z,8.93
2023-01-18T10:41:19.054Z,9.10
2023-01-18T10:46:21.191Z,9.10
2023-01-18T10:51:36.941Z,8.60
2023-01-18T10:56:39.933Z,9.30
2023-01-18T11:01:53.137Z,9.70
2023-01-18T11:06:56.804Z,9.90
2023-01-18T11:12:37.046Z,10.27
2023-01-18T11:17:39.173Z,9.93
2023-01-18T11:22:59.835Z,10.60
2023-01-18T11:28:02.443Z,11.20
2023-01-18T11:33:04.326Z,10.70
2023-01-18T11:38:10.550Z,10.27
2023-01-18T11:43:24.747Z,9.90
2023-01-18T11:48:48.522Z,10.60
2023-01-18T11:53:58.837Z,9.73
2023-01-18T11:59:01.911Z,9.53
2023-01-18T12:04:12.286Z,10.43
2023-01-18T12:09:29.145Z,10.33
2023-01-18T12:14:37.039Z,10.03
2023-01-18T12:19:44.880Z,9.30
2023-01-18T12:25:25.658Z,9.97
2023-01-18T12:30:51.911Z,9.87
2023-01-18T12:36:15.333Z,10.57
2023-01-18T12:41:30.995Z,10.53
2023-01-18T12:47:03.143Z,10.17
2023-01-18T12:52:18.196Z,10.40
2023-01-18T12:57:21.400Z,11.10
2023-01-18T13:02:45.591Z,10.90
2023-01-18T13:07:55.307Z,10.17
2023-01-18T13:12:57.667Z,10.63
2023-01-18T13:18:08.074Z,10.90
2023-01-18T13:23:39.342Z,11.70
2023-01-18T13:28:41.117Z,11.20
2023-01-18T13:33:47.066Z,10.37
2023-01-18T13:39:03.397Z,9.90
2023-01-18T13:44:13.149Z,9.93
2023-01-18T13:49:37.094Z,10.70
2023-01-18T13:54:39.091Z,10.53
2023-01-18T13:59:46.656Z,10.63
2023-01-18T14:05:03.686Z,11.10
2023-01-18T14:10:08.184Z,10.63
2023-01-18T14:15:23.740Z,11.10
2023-01-18T14:20:34.531Z,11.10
2023-01-18T14:25:43.261Z,10.93
2023-01-18T14:30:46.360Z,11.23
2023-01-18T14:35:58.322Z,9.70
2023-01-18T14:41:05.129Z,10.07
2023-01-18T14:46:24.708Z,10.13
2023-01-18T14:51:28.166Z,9.33
2023-01-18T14:56:33.238Z,8.90
2023-01-18T15:01:37.905Z,10.07
2023-01-18T15:06:45.123Z,10.87
2023-01-18T15:11:47.739Z,9.13
2023-01-18T15:16:52.092Z,8.50
2023-01-18T15:21:53.803Z,7.63
2023-01-18T15:26:57.500Z,7.27
2023-01-18T15:32:20.140Z,7.83
2023-01-18T15:37:37.459Z,7.70
2023-01-18T15:42:43.089Z,8.20
2023-01-18T15:47:52.791Z,7.70
2023-01-18T15:53:06.179Z,8.03
2023-01-18T15:58:12.265Z,8.73
2023-01-18T16:03:21.762Z,8.17
2023-01-18T16:08:23.874Z,8.07
2023-01-18T16:13:38.387Z,8.17
2023-01-18T16:19:31.741Z,7.70
2023-01-18T16:24:46.226Z,6.93
2023-01-18T16:29:49.988Z,8.07
2023-01-18T16:34:54.490Z,7.40
2023-01-18T16:39:56.301Z,6.70
2023-01-18T16:44:57.947Z,6.70
2023-01-18T16:49:59.628Z,5.70
2023-01-18T16:55:01.216Z,6.00
2023-01-18T17:00:16.082Z,6.70
2023-01-18T17:05:17.968Z,6.67
2023-01-18T17:10:31.596Z,6.10
2023-01-18T17:15:34.664Z,6.50
2023-01-18T17:20:36.318Z,6.30
2023-01-18T17:25:38.078Z,6.27
2023-01-18T17:30:40.819Z,5.97
2023-01-18T17:35:42.723Z,4.73
2023-01-18T17:40:44.719Z,4.27
2023-01-18T17:45:59.627Z,3.93
2023-01-18T17:51:07.618Z,3.40
2023-01-18T17:56:14.901Z,4.27
2023-01-18T18:01:17.235Z,4.70
2023-01-18T18:06:30.346Z,4.60
2023-01-18T18:11:32.753Z,4.80
2023-01-18T18:16:42.605Z,5.00
2023-01-18T18:21:45.806Z,5.17
2023-01-18T18:26:47.525Z,4.97
2023-01-18T18:31:49.220Z,4.33
2023-01-18T18:36:50.912Z,3.50
2023-01-18T18:41:53.258Z,3.30
2023-01-18T18:46:54.850Z,2.97
2023-01-18T18:51:56.535Z,2.67
2023-01-18T18:57:00.065Z,3.07
2023-01-18T19:02:01.720Z,3.37
2023-01-18T19:07:03.360Z,2.80
2023-01-18T19:12:05.033Z,2.70
2023-01-18T19:17:07.301Z,2.60
2023-01-18T19:22:08.934Z,2.60
2023-01-18T19:27:10.686Z,2.90
2023-01-18T19:32:12.357Z,2.70
2023-01-18T19:37:14.018Z,2.80
2023-01-18T19:42:15.573Z,3.10
2023-01-18T19:47:17.113Z,2.90
2023-01-18T19:52:18.681Z,3.13
2023-01-18T19:57:20.247Z,2.60
2023-01-18T20:02:22.519Z,3.23
2023-01-18T20:07:24.289Z,3.00
2023-01-18T20:12:29.233Z,2.83
2023-01-18T20:17:30.910Z,3.63
2023-01-18T20:22:32.512Z,3.83
2023-01-18T20:27:34.193Z,3.83
2023-01-18T20:32:35.812Z,4.07
2023-01-18T20:37:37.554Z,4.40
2023-01-18T20:42:39.847Z,4.77
2023-01-18T20:47:41.425Z,4.90
2023-01-18T20:52:43.643Z,4.13
2023-01-18T20:57:45.932Z,5.00
2023-01-18T21:02:48.565Z,4.60
2023-01-18T21:07:50.454Z,4.67
2023-01-18T21:12:52.067Z,4.73
2023-01-18T21:17:54.156Z,5.10
2023-01-18T21:22:59.655Z,4.50
2023-01-18T21:28:02.615Z,5.20
2023-01-18T21:33:04.545Z,4.70
2023-01-18T21:38:07.299Z,6.03
2023-01-18T21:43:35.304Z,6.17
2023-01-18T21:48:37.577Z,5.83
2023-01-18T21:54:00.857Z,5.97
2023-01-18T21:59:03.037Z,6.30
2023-01-18T22:04:31.925Z,6.70
2023-01-18T22:09:33.651Z,6.83
2023-01-18T22:14:35.198Z,6.93
2023-01-18T22:19:36.782Z,7.23
2023-01-18T22:24:39.052Z,7.00
2023-01-18T22:29:40.736Z,6.87
2023-01-18T22:34:42.315Z,7.73
2023-01-18T22:39:43.845Z,7.77
2023-01-18T22:44:45.426Z,7.23
2023-01-18T22:49:47.138Z,7.90
2023-01-18T22:54:48.716Z,8.13
2023-01-18T22:59:50.283Z,7.60
2023-01-18T23:04:52.070Z,8.33
2023-01-18T23:09:53.624Z,8.73
2023-01-18T23:15:13.920Z,9.03
2023-01-18T23:20:15.548Z,9.07
2023-01-18T23:25:17.196Z,8.90
2023-01-18T23:30:19.121Z,9.00
2023-01-18T23:35:20.673Z,9.00
2023-01-18T23:40:40.932Z,9.00
2023-01-18T23:46:01.896Z,8.07
2023-01-18T23:51:22.826Z,8.60
2023-01-18T23:56:24.536Z,9.57
